createdAt,value
2018-02-08T00:00:55.127Z,2.78
2018-02-08T00:03:24.213Z,2.69
2018-02-08T00:05:53.340Z,2.61
2018-02-08T00:08:22.472Z,2.59
2018-02-08T00:10:52.350Z,2.54
2018-02-08T00:13:22.213Z,2.53
2018-02-08T00:15:51.324Z,2.48
2018-02-08T00:18:20.478Z,2.54
2018-02-08T00:20:49.560Z,2.57
2018-02-08T00:23:18.648Z,2.54
2018-02-08T00:25:47.780Z,2.55
2018-02-08T00:28:18.566Z,2.64
2018-02-08T00:30:47.752Z,2.54
2018-02-08T00:33:16.911Z,2.50
2018-02-08T00:35:46.787Z,2.45
2018-02-08T00:38:15.884Z,2.40
2018-02-08T00:40:44.994Z,2.42
2018-02-08T00:43:14.858Z,2.40
2018-02-08T00:45:44.796Z,2.36
2018-02-08T00:48:13.897Z,2.36
2018-02-08T00:50:43.032Z,2.34
2018-02-08T00:53:12.927Z,2.34
2018-02-08T00:55:42.075Z,2.28
2018-02-08T00:58:11.157Z,2.24
2018-02-08T01:00:40.352Z,2.24
2018-02-08T01:03:10.225Z,2.25
2018-02-08T01:05:39.427Z,2.23
2018-02-08T01:08:08.519Z,2.22
2018-02-08T01:10:37.666Z,2.28
2018-02-08T01:13:06.765Z,2.29
2018-02-08T01:15:35.902Z,2.27
2018-02-08T01:18:05.297Z,2.20
2018-02-08T01:20:34.439Z,2.13
2018-02-08T01:23:04.301Z,2.12
2018-02-08T01:25:34.203Z,2.07
2018-02-08T01:28:03.321Z,2.04
2018-02-08T01:30:33.154Z,1.98
2018-02-08T01:33:02.286Z,1.95
2018-02-08T01:35:31.411Z,1.90
2018-02-08T01:38:00.860Z,1.89
2018-02-08T01:40:30.730Z,1.80
2018-02-08T01:42:59.867Z,1.77
2018-02-08T01:45:28.982Z,1.74
2018-02-08T01:47:58.887Z,1.74
2018-02-08T01:50:28.807Z,1.75
2018-02-08T01:52:57.900Z,1.72
2018-02-08T01:55:27.799Z,1.72
2018-02-08T01:57:56.922Z,1.71
2018-02-08T02:00:26.757Z,1.62
2018-02-08T02:02:55.859Z,1.58
2018-02-08T02:05:24.982Z,1.63
2018-02-08T02:07:54.083Z,1.63
2018-02-08T02:10:23.229Z,1.59
2018-02-08T02:12:52.311Z,1.59
2018-02-08T02:15:21.445Z,1.56
2018-02-08T02:17:51.298Z,1.56
2018-02-08T02:20:21.183Z,1.53
2018-02-08T02:22:51.067Z,1.58
2018-02-08T02:25:20.176Z,1.58
2018-02-08T02:27:49.372Z,1.57
2018-02-08T02:30:18.605Z,1.56
2018-02-08T02:32:48.462Z,1.60
2018-02-08T02:35:17.574Z,1.53
2018-02-08T02:37:46.714Z,1.49
2018-02-08T02:40:15.830Z,1.47
2018-02-08T02:42:45.732Z,1.57
2018-02-08T02:45:14.850Z,1.61
2018-02-08T02:47:43.954Z,1.60
2018-02-08T02:50:13.069Z,1.60
2018-02-08T02:52:42.161Z,1.49
2018-02-08T02:55:11.286Z,1.41
2018-02-08T02:57:40.532Z,1.41
2018-02-08T03:00:09.645Z,1.42
2018-02-08T03:02:39.177Z,1.42
2018-02-08T03:05:08.310Z,1.35
2018-02-08T03:07:37.408Z,1.33
2018-02-08T03:10:06.525Z,1.36
2018-02-08T03:12:36.382Z,1.34
2018-02-08T03:15:05.506Z,1.32
2018-02-08T03:17:34.640Z,1.38
2018-02-08T03:20:03.777Z,1.30
2018-02-08T03:22:32.907Z,1.28
2018-02-08T03:25:02.001Z,1.22
2018-02-08T03:27:31.899Z,1.21
2018-02-08T03:30:02.530Z,1.21
2018-02-08T03:32:32.200Z,1.18
2018-02-08T03:35:01.325Z,1.16
2018-02-08T03:37:30.449Z,1.13
2018-02-08T03:39:59.570Z,1.11
2018-02-08T03:42:29.441Z,1.07
2018-02-08T03:44:58.537Z,1.10
2018-02-08T03:47:27.646Z,1.10
2018-02-08T03:49:56.773Z,1.06
2018-02-08T03:52:26.702Z,1.04
2018-02-08T03:54:55.814Z,0.99
2018-02-08T03:57:25.838Z,1.01
2018-02-08T03:59:54.973Z,1.00
2018-02-08T04:02:24.061Z,0.98
2018-02-08T04:04:53.186Z,0.97
2018-02-08T04:07:22.290Z,0.96
2018-02-08T04:09:51.409Z,0.91
2018-02-08T04:12:20.518Z,0.89
2018-02-08T04:14:49.640Z,0.95
2018-02-08T04:17:18.763Z,1.00
2018-02-08T04:19:48.660Z,1.04
2018-02-08T04:22:18.556Z,1.03
2018-02-08T04:24:47.649Z,1.01
2018-02-08T04:27:17.674Z,1.03
2018-02-08T04:29:46.770Z,1.06
2018-02-08T04:32:16.962Z,1.01
2018-02-08T04:34:46.072Z,0.92
2018-02-08T04:37:15.244Z,0.91
2018-02-08T04:40:02.030Z,0.84
2018-02-08T04:42:49.633Z,0.78
2018-02-08T04:45:36.597Z,0.76
2018-02-08T04:48:08.451Z,0.75
2018-02-08T04:50:37.575Z,0.84
2018-02-08T04:53:07.480Z,0.83
2018-02-08T04:55:37.101Z,0.84
2018-02-08T04:58:06.226Z,0.80
2018-02-08T05:00:35.354Z,0.89
2018-02-08T05:03:04.464Z,0.95
2018-02-08T05:05:33.594Z,0.88
2018-02-08T05:08:02.706Z,0.91
2018-02-08T05:10:31.833Z,0.80
2018-02-08T05:13:01.688Z,0.86
2018-02-08T05:15:30.806Z,0.84
2018-02-08T05:17:59.929Z,0.82
2018-02-08T05:20:29.037Z,0.77
2018-02-08T05:22:58.918Z,0.69
2018-02-08T05:25:28.044Z,0.64
2018-02-08T05:27:57.935Z,0.56
2018-02-08T05:30:27.024Z,0.49
2018-02-08T05:32:56.193Z,0.48
2018-02-08T05:35:25.247Z,0.44
2018-02-08T05:37:54.376Z,0.39
2018-02-08T05:40:23.507Z,0.39
2018-02-08T05:42:52.645Z,0.37
2018-02-08T05:45:22.381Z,0.33
2018-02-08T05:47:51.505Z,0.34
2018-02-08T05:50:20.684Z,0.29
2018-02-08T05:52:49.849Z,0.20
2018-02-08T05:55:20.111Z,0.22
2018-02-08T05:57:49.989Z,0.18
2018-02-08T06:00:19.164Z,0.13
2018-02-08T06:02:48.280Z,0.06
2018-02-08T06:05:17.376Z,0.08
2018-02-08T06:07:46.482Z,0.02
2018-02-08T06:10:15.601Z,0.00
2018-02-08T06:12:44.725Z,0.01
2018-02-08T06:15:14.146Z,-0.01
2018-02-08T06:17:44.122Z,0.00
2018-02-08T06:20:13.983Z,0.02
2018-02-08T06:22:43.123Z,0.07
2018-02-08T06:25:12.256Z,0.07
2018-02-08T06:27:41.646Z,0.05
2018-02-08T06:30:11.481Z,0.00
2018-02-08T06:32:40.604Z,0.01
2018-02-08T06:35:10.470Z,-0.04
2018-02-08T06:37:39.621Z,-0.07
2018-02-08T06:40:08.746Z,-0.10
2018-02-08T06:42:37.877Z,-0.16
2018-02-08T06:45:07.002Z,-0.12
2018-02-08T06:47:36.864Z,-0.11
2018-02-08T06:50:05.988Z,0.01
2018-02-08T06:52:35.107Z,0.04
2018-02-08T06:55:05.015Z,-0.10
2018-02-08T06:57:34.134Z,-0.07
2018-02-08T07:00:03.267Z,-0.07
2018-02-08T07:02:32.377Z,-0.02
2018-02-08T07:05:01.536Z,-0.10
2018-02-08T07:07:30.650Z,-0.08
2018-02-08T07:09:59.761Z,0.03
2018-02-08T07:12:29.654Z,-0.04
2018-02-08T07:14:59.537Z,0.05
2018-02-08T07:17:29.473Z,0.01
2018-02-08T07:19:58.584Z,0.00
2018-02-08T07:22:28.473Z,-0.03
2018-02-08T07:24:57.639Z,-0.02
2018-02-08T07:27:26.738Z,0.05
2018-02-08T07:29:55.843Z,0.00
2018-02-08T07:32:25.731Z,0.00
2018-02-08T07:34:54.857Z,0.02
2018-02-08T07:37:24.849Z,0.06
2018-02-08T07:39:53.976Z,0.08
2018-02-08T07:42:24.702Z,0.07
2018-02-08T07:44:54.955Z,0.12
2018-02-08T07:47:25.709Z,0.14
2018-02-08T07:49:54.874Z,0.24
2018-02-08T07:52:24.763Z,0.22
2018-02-08T07:54:53.921Z,0.25
2018-02-08T07:57:23.038Z,0.35
2018-02-08T07:59:52.174Z,0.36
2018-02-08T08:02:21.282Z,0.40
2018-02-08T08:04:50.400Z,0.35
2018-02-08T08:07:19.514Z,0.40
2018-02-08T08:09:48.677Z,0.42
2018-02-08T08:12:18.527Z,0.46
2018-02-08T08:14:47.778Z,0.56
2018-02-08T08:17:16.905Z,0.58
2018-02-08T08:19:47.137Z,0.54
2018-02-08T08:22:16.230Z,0.59
2018-02-08T08:24:45.345Z,0.65
2018-02-08T08:27:14.456Z,0.61
2018-02-08T08:29:43.619Z,0.65
2018-02-08T08:32:12.747Z,0.67
2018-02-08T08:34:41.921Z,0.64
2018-02-08T08:37:11.017Z,0.60
2018-02-08T08:39:40.133Z,0.66
2018-02-08T08:42:09.418Z,0.66
2018-02-08T08:44:38.539Z,0.67
2018-02-08T08:47:07.946Z,0.73
2018-02-08T08:49:37.093Z,0.74
2018-02-08T08:52:07.215Z,0.76
2018-02-08T08:54:36.323Z,0.77
2018-02-08T08:57:06.222Z,0.87
2018-02-08T08:59:35.949Z,1.02
2018-02-08T09:02:05.081Z,1.16
2018-02-08T09:04:34.246Z,1.36
2018-02-08T09:07:03.369Z,1.46
2018-02-08T09:09:32.529Z,1.58
2018-02-08T09:12:01.618Z,1.75
2018-02-08T09:14:30.722Z,1.83
2018-02-08T09:17:00.693Z,1.92
2018-02-08T09:19:29.782Z,2.04
2018-02-08T09:21:59.675Z,1.94
2018-02-08T09:24:28.784Z,1.94
2018-02-08T09:26:57.903Z,1.97
2018-02-08T09:29:28.893Z,2.00
2018-02-08T09:31:58.010Z,2.04
2018-02-08T09:34:27.136Z,2.03
2018-02-08T09:36:57.042Z,2.21
2018-02-08T09:39:26.153Z,2.18
2018-02-08T09:41:56.037Z,2.32
2018-02-08T09:44:25.906Z,2.33
2018-02-08T09:46:55.056Z,2.24
2018-02-08T09:49:24.894Z,2.35
2018-02-08T09:51:54.010Z,2.52
2018-02-08T09:54:23.142Z,2.64
2018-02-08T09:56:53.189Z,2.59
2018-02-08T09:59:22.310Z,2.65
2018-02-08T10:01:51.422Z,2.58
2018-02-08T10:04:20.545Z,2.53
2018-02-08T10:16:53.472Z,2.68
2018-02-08T10:25:29.418Z,2.88
2018-02-08T10:28:03.137Z,2.92
2018-02-08T10:30:33.027Z,2.93
2018-02-08T10:33:02.122Z,2.95
2018-02-08T10:35:31.286Z,2.96
2018-02-08T10:38:00.402Z,3.02
2018-02-08T10:40:29.610Z,3.13
2018-02-08T10:42:58.733Z,3.20
2018-02-08T10:45:29.257Z,3.13
2018-02-08T10:47:58.720Z,3.20
2018-02-08T10:50:27.833Z,3.17
2018-02-08T10:52:58.075Z,3.14
2018-02-08T10:55:29.011Z,3.12
2018-02-08T10:57:58.940Z,3.22
2018-02-08T11:00:28.134Z,3.27
2018-02-08T11:02:58.458Z,3.22
2018-02-08T11:05:27.560Z,3.26
2018-02-08T11:07:57.464Z,3.22
2018-02-08T11:10:26.566Z,3.16
2018-02-08T11:12:56.450Z,3.31
2018-02-08T11:15:25.560Z,3.35
2018-02-08T11:17:54.691Z,3.40
2018-02-08T11:20:24.547Z,3.56
2018-02-08T11:22:53.646Z,3.66
2018-02-08T11:25:22.770Z,3.65
2018-02-08T11:27:51.861Z,3.76
2018-02-08T11:30:21.681Z,3.81
2018-02-08T11:32:51.564Z,3.74
2018-02-08T11:35:23.084Z,3.85
2018-02-08T11:37:52.213Z,3.71
2018-02-08T11:40:21.943Z,3.88
2018-02-08T11:42:51.047Z,3.91
2018-02-08T11:45:20.142Z,3.88
2018-02-08T11:47:50.032Z,3.86
2018-02-08T11:50:19.193Z,3.87
2018-02-08T11:52:48.405Z,3.99
2018-02-08T11:55:18.231Z,4.14
2018-02-08T11:57:47.341Z,4.07
2018-02-08T12:00:16.434Z,4.13
2018-02-08T12:02:45.574Z,4.27
2018-02-08T12:05:14.691Z,4.30
2018-02-08T12:07:43.802Z,4.31
2018-02-08T12:10:12.907Z,4.42
2018-02-08T12:12:42.849Z,4.53
2018-02-08T12:15:11.937Z,4.49
2018-02-08T12:17:41.094Z,4.53
2018-02-08T12:20:10.190Z,4.59
2018-02-08T12:22:39.301Z,4.59
2018-02-08T12:25:08.431Z,4.51
2018-02-08T12:27:37.731Z,4.62
2018-02-08T12:30:06.828Z,4.75
2018-02-08T12:32:36.338Z,4.79
2018-02-08T12:35:06.371Z,4.85
2018-02-08T12:37:35.664Z,4.80
2018-02-08T12:40:04.782Z,4.88
2018-02-08T12:42:33.889Z,4.93
2018-02-08T12:45:02.993Z,5.05
2018-02-08T12:47:32.133Z,5.20
2018-02-08T12:50:01.253Z,5.32
2018-02-08T12:52:31.138Z,5.28
2018-02-08T12:55:00.261Z,5.24
2018-02-08T12:57:30.147Z,5.22
2018-02-08T12:59:59.248Z,5.22
2018-02-08T13:02:28.365Z,5.08
2018-02-08T13:04:58.250Z,5.13
2018-02-08T13:07:27.364Z,5.09
2018-02-08T13:09:56.494Z,5.15
2018-02-08T13:12:25.591Z,5.07
2018-02-08T13:14:54.764Z,5.19
2018-02-08T13:17:23.880Z,5.21
2018-02-08T13:19:53.758Z,5.17
2018-02-08T13:22:22.894Z,5.30
2018-02-08T13:24:52.036Z,5.43
2018-02-08T13:27:21.149Z,5.36
2018-02-08T13:29:50.273Z,5.36
2018-02-08T13:32:20.714Z,5.55
2018-02-08T13:34:49.855Z,5.68
2018-02-08T13:37:20.418Z,5.77
2018-02-08T13:42:56.852Z,5.70
2018-02-08T13:45:25.980Z,5.61
2018-02-08T13:48:09.845Z,5.61
2018-02-08T13:50:59.313Z,5.67
2018-02-08T13:53:33.801Z,5.70
2018-02-08T13:56:10.372Z,5.81
2018-02-08T13:58:56.085Z,5.95
2018-02-08T14:01:35.144Z,5.93
2018-02-08T14:04:05.005Z,6.01
2018-02-08T14:06:34.355Z,6.15
2018-02-08T14:09:03.477Z,6.27
2018-02-08T14:11:32.574Z,6.11
2018-02-08T14:14:01.710Z,6.21
2018-02-08T14:16:30.794Z,6.12
2018-02-08T14:19:01.601Z,6.07
2018-02-08T14:21:30.697Z,6.10
2018-02-08T14:23:59.830Z,6.26
2018-02-08T14:26:29.952Z,6.31
2018-02-08T14:28:59.099Z,6.36
2018-02-08T14:31:28.972Z,6.42
2018-02-08T14:33:58.092Z,6.43
2018-02-08T14:36:28.723Z,6.39
2018-02-08T14:38:59.578Z,6.61
2018-02-08T14:41:28.727Z,6.60
2018-02-08T14:43:57.843Z,6.62
2018-02-08T14:46:28.344Z,6.63
2018-02-08T14:48:57.441Z,6.55
2018-02-08T14:51:26.562Z,6.90
2018-02-08T14:53:56.460Z,8.22
2018-02-08T14:56:25.576Z,9.80
2018-02-08T14:58:55.427Z,10.74
2018-02-08T15:01:24.533Z,10.67
2018-02-08T15:03:54.416Z,10.62
2018-02-08T15:06:25.120Z,10.86
2018-02-08T15:08:54.263Z,10.89
2018-02-08T15:11:23.364Z,11.31
2018-02-08T15:13:52.501Z,10.54
2018-02-08T15:16:21.627Z,9.87
2018-02-08T15:18:51.539Z,9.07
2018-02-08T15:21:21.402Z,7.98
2018-02-08T15:23:50.518Z,7.36
2018-02-08T15:26:19.633Z,6.96
2018-02-08T15:28:48.746Z,6.69
2018-02-08T15:31:17.842Z,6.43
2018-02-08T15:33:46.967Z,6.32
2018-02-08T15:36:16.089Z,6.24
2018-02-08T15:38:45.544Z,6.22
2018-02-08T15:41:14.677Z,6.21
2018-02-08T15:43:43.790Z,6.14
2018-02-08T15:46:12.916Z,5.99
2018-02-08T15:48:42.079Z,5.90
2018-02-08T15:51:11.932Z,5.67
2018-02-08T15:53:42.027Z,5.43
2018-02-08T15:56:11.158Z,5.22
2018-02-08T15:58:41.033Z,5.05
2018-02-08T16:01:10.200Z,4.91
2018-02-08T16:03:39.308Z,4.99
2018-02-08T16:06:08.426Z,4.79
2018-02-08T16:08:37.542Z,4.58
2018-02-08T16:11:07.427Z,4.44
2018-02-08T16:13:36.545Z,4.29
2018-02-08T16:16:05.689Z,4.16
2018-02-08T16:18:34.802Z,4.05
2018-02-08T16:21:04.044Z,3.96
2018-02-08T16:23:33.953Z,3.89
2018-02-08T16:26:03.054Z,3.82
2018-02-08T16:28:32.961Z,3.76
2018-02-08T16:31:02.067Z,3.66
2018-02-08T16:33:31.958Z,3.64
2018-02-08T16:36:01.123Z,3.53
2018-02-08T16:38:30.239Z,3.46
2018-02-08T16:40:59.360Z,3.42
2018-02-08T16:43:28.471Z,3.29
2018-02-08T16:45:57.602Z,3.20
2018-02-08T16:48:26.730Z,3.12
2018-02-08T16:50:55.844Z,2.98
2018-02-08T16:53:24.979Z,2.92
2018-02-08T16:55:54.062Z,2.77
2018-02-08T16:58:23.199Z,2.72
2018-02-08T17:00:52.282Z,2.71
2018-02-08T17:03:21.439Z,2.62
2018-02-08T17:05:50.583Z,2.51
2018-02-08T17:08:19.717Z,2.48
2018-02-08T17:10:48.855Z,2.41
2018-02-08T17:13:17.987Z,2.35
2018-02-08T17:15:47.128Z,2.31
2018-02-08T17:18:16.195Z,2.34
2018-02-08T17:20:45.321Z,2.30
2018-02-08T17:23:15.209Z,2.25
2018-02-08T17:25:44.349Z,2.26
2018-02-08T17:28:13.447Z,2.23
2018-02-08T17:30:43.136Z,2.23
2018-02-08T17:33:13.012Z,2.15
2018-02-08T17:35:43.106Z,2.05
2018-02-08T17:38:13.078Z,2.04
2018-02-08T17:40:43.714Z,1.96
2018-02-08T17:43:13.584Z,1.88
2018-02-08T17:45:42.727Z,1.86
2018-02-08T17:48:12.655Z,1.79
2018-02-08T17:50:42.539Z,1.78
2018-02-08T17:53:12.377Z,1.76
2018-02-08T17:55:42.497Z,1.75
2018-02-08T17:58:12.380Z,1.78
2018-02-08T18:00:41.474Z,1.74
2018-02-08T18:03:11.473Z,1.70
2018-02-08T18:05:40.585Z,1.63
2018-02-08T18:08:09.707Z,1.55
2018-02-08T18:10:39.570Z,1.58
2018-02-08T18:13:08.753Z,1.60
2018-02-08T18:15:37.851Z,1.59
2018-02-08T18:18:07.804Z,1.50
2018-02-08T18:20:36.887Z,1.55
2018-02-08T18:23:06.048Z,1.63
2018-02-08T18:25:35.300Z,1.67
2018-02-08T18:28:04.416Z,1.66
2018-02-08T18:30:34.287Z,1.67
2018-02-08T18:33:03.425Z,1.70
2018-02-08T18:35:33.319Z,1.76
2018-02-08T18:38:02.479Z,1.66
2018-02-08T18:40:31.667Z,1.65
2018-02-08T18:43:00.732Z,1.63
2018-02-08T18:45:31.068Z,1.60
2018-02-08T18:48:00.276Z,1.63
2018-02-08T18:50:29.415Z,1.70
2018-02-08T18:52:58.547Z,1.68
2018-02-08T18:55:28.416Z,1.65
2018-02-08T18:57:57.544Z,1.65
2018-02-08T19:00:26.666Z,1.62
2018-02-08T19:02:56.545Z,1.57
2018-02-08T19:05:25.660Z,1.58
2018-02-08T19:07:54.802Z,1.52
2018-02-08T19:10:24.712Z,1.45
2018-02-08T19:12:53.827Z,1.48
2018-02-08T19:15:22.950Z,1.40
2018-02-08T19:17:52.071Z,1.34
2018-02-08T19:20:22.485Z,1.37
2018-02-08T19:22:51.637Z,1.49
2018-02-08T19:25:20.829Z,1.60
2018-02-08T19:27:49.943Z,1.56
2018-02-08T19:30:19.187Z,1.47
2018-02-08T19:32:49.100Z,1.43
2018-02-08T19:35:18.954Z,1.46
2018-02-08T19:37:48.078Z,1.55
2018-02-08T19:40:17.213Z,1.50
2018-02-08T19:42:47.087Z,1.49
2018-02-08T19:45:16.192Z,1.49
2018-02-08T19:47:45.345Z,1.59
2018-02-08T19:50:14.461Z,1.57
2018-02-08T19:52:43.586Z,1.55
2018-02-08T19:55:12.716Z,1.48
2018-02-08T19:57:42.596Z,1.52
2018-02-08T20:00:11.726Z,1.47
2018-02-08T20:02:41.596Z,1.47
2018-02-08T20:05:10.711Z,1.48
2018-02-08T20:07:39.858Z,1.48
2018-02-08T20:10:08.988Z,1.59
2018-02-08T20:12:38.131Z,1.72
2018-02-08T20:15:24.785Z,1.88
2018-02-08T20:17:53.919Z,1.87
2018-02-08T20:20:23.825Z,1.76
2018-02-08T20:22:53.711Z,1.78
2018-02-08T20:25:28.261Z,1.85
2018-02-08T20:27:57.364Z,1.90
2018-02-08T20:30:27.269Z,2.01
2018-02-08T20:32:56.375Z,2.05
2018-02-08T20:35:26.995Z,2.11
2018-02-08T20:37:56.127Z,2.23
2018-02-08T20:40:25.664Z,2.18
2018-02-08T20:46:02.653Z,2.07
2018-02-08T20:48:31.739Z,2.09
2018-02-08T20:51:00.834Z,2.14
2018-02-08T20:53:29.980Z,2.17
2018-02-08T20:55:59.277Z,2.16
2018-02-08T20:58:28.419Z,2.14
2018-02-08T21:00:57.517Z,2.05
2018-02-08T21:03:26.662Z,1.99
2018-02-08T21:05:55.767Z,2.00
2018-02-08T21:08:24.873Z,2.00
2018-02-08T21:10:54.001Z,1.94
2018-02-08T21:13:23.383Z,1.91
2018-02-08T21:15:53.372Z,1.90
2018-02-08T21:18:22.502Z,1.91
2018-02-08T21:20:51.640Z,1.95
2018-02-08T21:23:20.792Z,2.02
2018-02-08T21:25:49.900Z,2.05
2018-02-08T21:28:19.059Z,2.06
2018-02-08T21:30:48.148Z,2.01
2018-02-08T21:33:17.255Z,2.01
2018-02-08T21:35:46.396Z,2.11
2018-02-08T21:38:15.485Z,2.21
2018-02-08T21:40:44.634Z,2.17
2018-02-08T21:43:13.776Z,2.15
2018-02-08T21:45:43.660Z,2.12
2018-02-08T21:48:13.696Z,2.08
2018-02-08T21:50:43.578Z,2.09
2018-02-08T21:53:12.701Z,2.09
2018-02-08T21:55:42.781Z,2.13
2018-02-08T21:58:11.929Z,2.19
2018-02-08T22:00:43.197Z,2.17
2018-02-08T22:03:12.339Z,2.18
2018-02-08T22:05:41.473Z,2.21
2018-02-08T22:08:11.423Z,2.47
2018-02-08T22:10:40.520Z,2.44
2018-02-08T22:13:09.639Z,2.40
2018-02-08T22:15:38.747Z,2.35
2018-02-08T22:18:07.882Z,2.28
2018-02-08T22:20:36.983Z,2.26
2018-02-08T22:23:06.095Z,2.22
2018-02-08T22:25:36.114Z,2.18
2018-02-08T22:28:05.279Z,2.23
2018-02-08T22:30:35.810Z,2.25
2018-02-08T22:33:04.914Z,2.27
2018-02-08T22:35:34.022Z,2.24
2018-02-08T22:38:03.141Z,2.21
2018-02-08T22:40:32.339Z,2.14
2018-02-08T22:43:01.459Z,2.12
2018-02-08T22:45:30.584Z,2.14
2018-02-08T22:48:00.543Z,2.27
2018-02-08T22:50:29.668Z,2.29
2018-02-08T22:52:58.792Z,2.25
2018-02-08T22:55:28.694Z,2.20
2018-02-08T22:57:58.557Z,2.23
2018-02-08T23:00:27.819Z,2.22
2018-02-08T23:02:57.685Z,2.25
2018-02-08T23:05:26.798Z,2.27
2018-02-08T23:07:55.924Z,2.30
2018-02-08T23:10:25.805Z,2.40
2018-02-08T23:12:54.920Z,2.42
2018-02-08T23:15:24.560Z,2.42
2018-02-08T23:17:54.300Z,2.44
2018-02-08T23:20:23.395Z,2.41
2018-02-08T23:22:52.519Z,2.42
2018-02-08T23:25:21.618Z,2.50
2018-02-08T23:27:51.519Z,2.57
2018-02-08T23:30:20.601Z,2.52
2018-02-08T23:32:50.661Z,2.55
2018-02-08T23:35:19.749Z,2.65
2018-02-08T23:37:49.637Z,2.73
2018-02-08T23:40:18.809Z,2.61
2018-02-08T23:42:47.922Z,2.51
2018-02-08T23:45:17.036Z,2.62
2018-02-08T23:47:46.699Z,2.54
2018-02-08T23:50:15.786Z,2.52
2018-02-08T23:52:44.898Z,2.45
2018-02-08T23:55:14.011Z,2.39
2018-02-08T23:57:43.131Z,2.36
